Time;durP1;ratioP1;P1;durP2;ratioP2;P2;SDS_P1;SDS_P2;PMS_P1;PMS_P2;Temp;Humidity;BMP_temperature;BMP_pressure;BME280_temperature;BME280_humidity;BME280_pressure;Samples;Min_cycle;Max_cycle;Signal;HPM_P1;HPM_P2
2021/04/10 00:00:47;;;;;;;1.50;1.20;;;9.30;98.20;;;;;;5006562;28;20488;-79
2021/04/10 00:03:15;;;;;;;1.50;1.10;;;9.30;98.20;;;;;;5034126;28;20476;-79
2021/04/10 00:05:41;;;;;;;1.50;1.10;;;9.30;98.20;;;;;;5010159;28;20469;-78
2021/04/10 00:08:07;;;;;;;1.50;1.20;;;9.30;98.20;;;;;;5003596;28;20491;-78
2021/04/10 00:10:34;;;;;;;1.50;1.13;;;9.20;98.20;;;;;;5007874;28;20485;-78
2021/04/10 00:13:00;;;;;;;1.50;1.20;;;9.20;98.20;;;;;;5025802;28;20479;-79
2021/04/10 00:15:29;;;;;;;1.50;1.10;;;9.20;98.20;;;;;;5011713;28;20538;-79
2021/04/10 00:17:55;;;;;;;1.50;1.20;;;9.20;98.20;;;;;;5021069;28;20491;-77
2021/04/10 00:20:23;;;;;;;1.50;1.10;;;9.20;98.20;;;;;;5011938;28;20483;-78
2021/04/10 00:22:49;;;;;;;1.53;1.23;;;9.20;98.20;;;;;;5022244;28;21132;-78
2021/04/10 00:25:17;;;;;;;1.50;1.10;;;9.20;98.20;;;;;;5013077;28;20464;-78
2021/04/10 00:27:43;;;;;;;1.57;1.30;;;9.20;98.20;;;;;;5014461;28;20537;-78
2021/04/10 00:30:12;;;;;;;1.50;1.10;;;9.30;98.20;;;;;;5007232;28;20851;-78
2021/04/10 00:32:39;;;;;;;1.50;1.10;;;9.30;98.20;;;;;;5022291;28;20890;-78
2021/04/10 00:35:06;;;;;;;1.50;1.20;;;9.30;98.20;;;;;;5015323;28;20468;-80
2021/04/10 00:37:34;;;;;;;1.50;1.20;;;9.30;98.20;;;;;;5019668;28;20499;-78
2021/04/10 00:40:00;;;;;;;1.60;1.30;;;9.30;98.20;;;;;;5023050;28;20492;-77
2021/04/10 00:42:26;;;;;;;1.50;1.20;;;9.30;98.20;;;;;;5021637;28;20487;-79
2021/04/10 00:44:52;;;;;;;1.50;1.10;;;9.30;98.20;;;;;;5019716;28;20464;-78
2021/04/10 00:47:19;;;;;;;1.50;1.10;;;9.30;98.20;;;;;;5009554;28;20495;-78
2021/04/10 00:49:47;;;;;;;1.57;1.20;;;9.40;98.20;;;;;;5021546;28;21110;-78
2021/04/10 00:52:15;;;;;;;1.50;1.20;;;9.30;98.20;;;;;;5013598;28;20483;-77
2021/04/10 00:54:42;;;;;;;1.53;1.30;;;9.30;98.20;;;;;;5022955;28;20479;-78
2021/04/10 00:57:09;;;;;;;1.50;1.20;;;9.30;98.20;;;;;;5005201;28;20495;-78
2021/04/10 00:59:35;;;;;;;1.50;1.20;;;9.30;98.20;;;;;;5018660;28;20484;-79
2021/04/10 01:02:03;;;;;;;1.50;1.13;;;9.30;98.20;;;;;;5007959;28;20488;-79
2021/04/10 01:04:30;;;;;;;1.50;1.10;;;9.30;98.20;;;;;;5028958;28;20464;-78
2021/04/10 01:06:57;;;;;;;1.50;1.10;;;9.30;98.20;;;;;;5015596;28;20490;-78
2021/04/10 01:09:23;;;;;;;1.50;1.10;;;9.30;98.20;;;;;;5023983;28;20858;-79
2021/04/10 01:12:12;;;;;;;1.50;1.20;;;9.20;98.20;;;;;;5015607;28;20805;-80
2021/04/10 01:14:49;;;;;;;1.50;1.20;;;9.20;98.20;;;;;;5011377;28;20574;-78
2021/04/10 01:17:21;;;;;;;1.50;1.20;;;9.20;98.20;;;;;;5008457;28;20483;-79
2021/04/10 01:20:05;;;;;;;1.50;1.10;;;9.20;98.20;;;;;;5004798;28;20916;-76
2021/04/10 01:22:50;;;;;;;1.50;1.20;;;9.20;98.20;;;;;;5003606;28;20483;-78
2021/04/10 01:25:24;;;;;;;1.50;1.20;;;9.20;98.20;;;;;;5013781;28;20468;-79
2021/04/10 01:27:56;;;;;;;1.57;1.20;;;9.20;98.20;;;;;;5000572;28;20554;-78
2021/04/10 01:30:24;;;;;;;1.50;1.20;;;9.20;98.20;;;;;;5016187;28;20479;-77
2021/04/10 01:32:58;;;;;;;1.50;1.20;;;9.20;98.20;;;;;;5027525;28;20478;-78
2021/04/10 01:35:28;;;;;;;1.50;1.20;;;9.20;98.20;;;;;;5010616;28;21028;-78
2021/04/10 01:37:58;;;;;;;1.50;1.10;;;9.20;98.20;;;;;;5030546;28;20540;-78
2021/04/10 01:40:27;;;;;;;1.50;1.10;;;9.20;98.20;;;;;;5016262;28;20492;-79
2021/04/10 01:42:55;;;;;;;1.50;1.10;;;9.20;98.20;;;;;;5027621;28;20487;-78
2021/04/10 01:45:24;;;;;;;1.50;1.20;;;9.20;98.20;;;;;;5007758;28;20464;-77
2021/04/10 01:47:52;;;;;;;1.50;1.10;;;9.20;98.20;;;;;;5018110;28;21033;-79
2021/04/10 01:50:20;;;;;;;1.50;1.10;;;9.10;98.20;;;;;;5008399;28;21056;-78
2021/04/10 01:52:48;;;;;;;1.50;1.10;;;9.10;98.20;;;;;;5014265;28;20527;-79
2021/04/10 01:55:17;;;;;;;1.50;1.20;;;9.10;98.20;;;;;;5009941;28;20464;-79
2021/04/10 01:57:43;;;;;;;1.50;1.30;;;9.10;98.20;;;;;;5016365;28;21171;-78
2021/04/10 02:00:12;;;;;;;1.50;1.10;;;9.10;98.20;;;;;;5005938;28;20492;-78
2021/04/10 02:02:41;;;;;;;1.50;1.10;;;9.10;98.20;;;;;;5013746;28;20497;-78
2021/04/10 02:05:11;;;;;;;1.60;1.30;;;9.00;98.20;;;;;;5001624;28;20480;-80
2021/04/10 02:07:38;;;;;;;1.50;1.10;;;9.10;98.20;;;;;;5012453;28;20498;-78
2021/04/10 02:10:08;;;;;;;1.53;1.10;;;9.10;98.20;;;;;;5007672;28;20480;-78
2021/04/10 02:12:34;;;;;;;1.53;1.23;;;9.00;98.20;;;;;;5010837;28;21053;-78
2021/04/10 02:15:01;;;;;;;1.60;1.20;;;9.00;98.20;;;;;;5005110;28;20677;-80
2021/04/10 02:17:28;;;;;;;1.60;1.30;;;9.00;98.20;;;;;;5016120;28;21125;-79
2021/04/10 02:19:56;;;;;;;1.50;1.17;;;9.00;98.20;;;;;;5001762;28;20493;-79
2021/04/10 02:22:23;;;;;;;1.50;1.10;;;9.00;98.20;;;;;;5009256;28;20490;-77
2021/04/10 02:24:50;;;;;;;1.50;1.20;;;8.90;98.20;;;;;;5009395;28;20842;-78
2021/04/10 02:27:16;;;;;;;1.50;1.10;;;8.90;98.20;;;;;;5012478;28;20490;-80
2021/04/10 02:29:44;;;;;;;1.57;1.20;;;8.90;98.20;;;;;;5007911;28;20876;-78
2021/04/10 02:32:19;;;;;;;1.50;1.10;;;8.90;98.20;;;;;;5018581;28;20857;-80
2021/04/10 02:34:50;;;;;;;1.50;1.20;;;8.80;98.20;;;;;;5011764;28;20770;-80
2021/04/10 02:37:17;;;;;;;1.50;1.20;;;8.80;98.20;;;;;;5012425;28;20486;-78
2021/04/10 02:39:44;;;;;;;1.50;1.13;;;8.70;98.20;;;;;;5011802;28;20980;-75
2021/04/10 02:42:12;;;;;;;1.50;1.10;;;8.70;98.20;;;;;;5022857;28;20491;-77
2021/04/10 02:44:44;;;;;;;1.50;1.10;;;8.70;98.20;;;;;;5021961;28;20466;-80
2021/04/10 02:47:12;;;;;;;1.50;1.20;;;8.60;98.20;;;;;;5014980;28;20480;-78
2021/04/10 02:49:44;;;;;;;1.57;1.20;;;8.60;98.20;;;;;;5019686;28;20483;-79
2021/04/10 02:52:11;;;;;;;1.50;1.20;;;8.50;98.20;;;;;;5015048;28;20492;-78
2021/04/10 02:54:46;;;;;;;1.53;1.20;;;8.50;98.20;;;;;;5021168;28;20491;-78
2021/04/10 02:57:16;;;;;;;1.50;1.20;;;8.50;98.20;;;;;;5008620;28;20487;-77
2021/04/10 02:59:45;;;;;;;1.50;1.10;;;8.50;98.20;;;;;;5018935;28;20488;-78
2021/04/10 03:02:13;;;;;;;1.57;1.20;;;8.40;98.20;;;;;;5016146;28;20491;-80
2021/04/10 03:04:41;;;;;;;1.60;1.30;;;8.40;98.20;;;;;;5023180;28;20467;-80
2021/04/10 03:07:08;;;;;;;1.53;1.20;;;8.40;98.20;;;;;;5003295;28;20916;-79
2021/04/10 03:09:36;;;;;;;1.50;1.20;;;8.40;98.20;;;;;;5016725;28;20863;-78
2021/04/10 03:12:04;;;;;;;1.53;1.13;;;8.40;98.20;;;;;;5011307;28;20494;-78
2021/04/10 03:14:32;;;;;;;1.50;1.20;;;8.30;98.20;;;;;;5018471;28;20490;-78
2021/04/10 03:16:59;;;;;;;1.50;1.20;;;8.30;98.20;;;;;;5016109;28;20482;-79
2021/04/10 03:19:26;;;;;;;1.50;1.20;;;8.30;98.20;;;;;;5021005;28;20541;-77
2021/04/10 03:21:52;;;;;;;1.50;1.20;;;8.30;98.20;;;;;;5011633;28;20485;-80
2021/04/10 03:24:19;;;;;;;1.50;1.20;;;8.20;98.20;;;;;;5012783;28;20979;-79
2021/04/10 03:26:46;;;;;;;1.53;1.20;;;8.30;98.20;;;;;;5007220;28;20489;-78
2021/04/10 03:29:14;;;;;;;1.53;1.20;;;8.20;98.20;;;;;;5015060;28;20485;-78
2021/04/10 03:31:41;;;;;;;1.50;1.20;;;8.20;98.20;;;;;;5008495;28;20871;-78
2021/04/10 03:34:08;;;;;;;1.57;1.30;;;8.20;98.20;;;;;;5019938;28;20472;-78
2021/04/10 03:36:34;;;;;;;1.60;1.30;;;8.20;98.20;;;;;;5011159;28;20478;-77
2021/04/10 03:39:01;;;;;;;1.53;1.30;;;8.20;98.20;;;;;;5029283;23;20607;-77
2021/04/10 03:41:28;;;;;;;1.50;1.20;;;8.20;98.20;;;;;;4987944;28;20483;-77
2021/04/10 03:43:54;;;;;;;1.60;1.30;;;8.30;98.20;;;;;;4992092;28;20491;-76
2021/04/10 03:46:21;;;;;;;1.53;1.30;;;8.30;98.20;;;;;;4989585;28;20484;-76
2021/04/10 03:48:47;;;;;;;1.50;1.20;;;8.30;98.20;;;;;;4985502;28;20489;-76
2021/04/10 03:51:14;;;;;;;1.57;1.23;;;8.30;98.20;;;;;;4975967;28;20569;-76
2021/04/10 03:53:40;;;;;;;1.60;1.30;;;8.30;98.20;;;;;;4998587;28;20462;-76
2021/04/10 03:56:06;;;;;;;1.50;1.20;;;8.30;98.20;;;;;;4975754;28;20516;-77
2021/04/10 03:58:32;;;;;;;1.53;1.20;;;8.30;98.20;;;;;;4980461;28;20722;-77
2021/04/10 04:00:59;;;;;;;2.80;2.60;;;8.30;98.20;;;;;;4964721;28;22505;-76
2021/04/10 04:03:26;;;;;;;1.53;1.30;;;8.30;98.20;;;;;;4997809;28;20466;-76
2021/04/10 04:05:52;;;;;;;1.57;1.10;;;8.40;98.20;;;;;;4972585;28;20466;-76
2021/04/10 04:08:18;;;;;;;1.50;1.20;;;8.40;98.20;;;;;;4975482;28;20472;-76
2021/04/10 04:10:45;;;;;;;1.60;1.30;;;8.40;98.20;;;;;;4971861;28;20860;-76
2021/04/10 04:13:11;;;;;;;1.50;1.20;;;8.40;98.20;;;;;;4975007;28;20473;-76
2021/04/10 04:15:37;;;;;;;1.50;1.20;;;8.40;98.20;;;;;;4983206;28;20465;-76
2021/04/10 04:18:03;;;;;;;1.50;1.17;;;8.40;98.20;;;;;;4972873;28;20491;-76
2021/04/10 04:20:30;;;;;;;1.53;1.20;;;8.40;98.20;;;;;;4981279;28;20525;-76
2021/04/10 04:22:57;;;;;;;1.53;1.20;;;8.40;98.20;;;;;;4968967;28;20631;-76
2021/04/10 04:25:23;;;;;;;1.57;1.30;;;8.40;98.20;;;;;;4981103;28;20472;-76
2021/04/10 04:27:49;;;;;;;1.50;1.20;;;8.40;98.20;;;;;;4968797;28;20496;-76
2021/04/10 04:30:19;;;;;;;1.53;1.20;;;8.40;98.20;;;;;;4980973;28;20500;-76
2021/04/10 04:32:45;;;;;;;1.50;1.20;;;8.40;98.20;;;;;;4985313;28;20510;-76
2021/04/10 04:35:12;;;;;;;1.53;1.20;;;8.40;98.20;;;;;;4983804;28;20497;-77
2021/04/10 04:37:40;;;;;;;1.57;1.20;;;8.40;98.20;;;;;;4992648;28;20491;-76
2021/04/10 04:40:08;;;;;;;1.60;1.30;;;8.40;98.20;;;;;;4987283;28;20710;-76
2021/04/10 04:42:35;;;;;;;1.50;1.20;;;8.40;98.20;;;;;;4994943;28;20558;-76
2021/04/10 04:45:02;;;;;;;1.50;1.20;;;8.40;98.20;;;;;;4987803;28;20456;-76
2021/04/10 04:47:29;;;;;;;1.53;1.20;;;8.40;98.20;;;;;;4979085;28;20480;-76
2021/04/10 04:49:56;;;;;;;1.50;1.20;;;8.40;98.20;;;;;;4993125;28;20496;-77
2021/04/10 04:52:23;;;;;;;1.50;1.20;;;8.40;98.20;;;;;;4995507;28;20728;-77
2021/04/10 04:54:50;;;;;;;1.57;1.27;;;8.40;98.20;;;;;;4998670;28;20840;-77
2021/04/10 04:57:17;;;;;;;1.50;1.30;;;8.40;98.20;;;;;;4977061;28;20493;-76
2021/04/10 04:59:43;;;;;;;1.50;1.20;;;8.40;98.20;;;;;;4980310;28;20576;-76
2021/04/10 05:02:09;;;;;;;1.57;1.20;;;8.40;98.20;;;;;;4984226;28;20877;-77
2021/04/10 05:04:35;;;;;;;1.53;1.20;;;8.40;98.20;;;;;;4987796;28;20544;-76
2021/04/10 05:07:08;;;;;;;1.53;1.20;;;8.40;98.20;;;;;;4979054;28;20481;-76
2021/04/10 05:09:34;;;;;;;1.50;1.13;;;8.40;98.20;;;;;;4992918;28;20487;-76
2021/04/10 05:12:08;;;;;;;1.50;1.20;;;8.40;98.20;;;;;;4982472;28;20557;-76
2021/04/10 05:14:35;;;;;;;1.50;1.20;;;8.40;98.20;;;;;;4990504;28;20468;-76
2021/04/10 05:17:01;;;;;;;1.53;1.20;;;8.40;98.20;;;;;;4991943;28;20543;-76
2021/04/10 05:19:31;;;;;;;1.53;1.20;;;8.50;98.20;;;;;;4999725;28;20481;-76
2021/04/10 05:21:57;;;;;;;1.50;1.20;;;8.40;98.20;;;;;;4984243;28;20489;-76
2021/04/10 05:24:23;;;;;;;1.50;1.20;;;8.50;98.20;;;;;;4991038;28;20473;-78
2021/04/10 05:26:49;;;;;;;1.50;1.20;;;8.50;98.20;;;;;;4991631;28;20483;-77
2021/04/10 05:29:16;;;;;;;1.57;1.30;;;8.50;98.20;;;;;;4999100;28;20499;-76
2021/04/10 05:31:44;;;;;;;1.50;1.20;;;8.50;98.20;;;;;;4981752;28;20477;-77
2021/04/10 05:34:13;;;;;;;1.53;1.20;;;8.50;98.20;;;;;;4985468;28;20914;-76
2021/04/10 05:36:39;;;;;;;1.50;1.20;;;8.50;98.20;;;;;;4984072;28;20483;-76
2021/04/10 05:39:06;;;;;;;1.50;1.30;;;8.60;98.20;;;;;;4995709;28;20634;-75
2021/04/10 05:41:33;;;;;;;1.60;1.30;;;8.60;98.20;;;;;;4985167;28;20527;-76
2021/04/10 05:44:07;;;;;;;1.50;1.20;;;8.60;98.20;;;;;;4993681;28;20863;-76
2021/04/10 05:46:36;;;;;;;1.53;1.10;;;8.60;98.20;;;;;;4980642;28;20503;-77
2021/04/10 05:49:05;;;;;;;1.50;1.10;;;8.60;98.20;;;;;;4989367;28;20481;-75
2021/04/10 05:51:32;;;;;;;1.53;1.30;;;8.60;98.20;;;;;;4975841;28;20492;-76
2021/04/10 05:54:00;;;;;;;1.50;1.20;;;8.60;98.20;;;;;;4985777;28;20552;-76
2021/04/10 05:56:29;;;;;;;1.60;1.30;;;8.70;98.20;;;;;;4975124;28;20537;-77
2021/04/10 05:58:55;;;;;;;1.50;1.20;;;8.70;98.20;;;;;;4988676;28;20624;-76
2021/04/10 06:01:22;;;;;;;1.50;1.13;;;8.70;98.20;;;;;;4972713;28;20488;-76
2021/04/10 06:03:49;;;;;;;1.50;1.20;;;8.70;98.20;;;;;;4988729;28;20929;-76
2021/04/10 06:06:19;;;;;;;1.50;1.20;;;8.70;98.20;;;;;;4977783;28;20490;-77
2021/04/10 06:08:46;;;;;;;1.50;1.20;;;8.70;98.20;;;;;;4994967;28;20574;-77
2021/04/10 06:11:12;;;;;;;1.60;1.40;;;8.70;98.20;;;;;;4981888;28;20538;-77
2021/04/10 06:13:39;;;;;;;2.30;2.10;;;8.80;98.20;;;;;;5001365;28;20485;-75
2021/04/10 06:16:08;;;;;;;1.50;1.10;;;8.80;98.20;;;;;;4977479;28;20485;-75
2021/04/10 06:18:35;;;;;;;1.50;1.10;;;8.80;98.20;;;;;;4980541;28;20457;-77
2021/04/10 06:21:03;;;;;;;1.60;1.20;;;8.80;98.20;;;;;;4974548;28;20539;-77
2021/04/10 06:23:32;;;;;;;1.50;1.10;;;8.90;98.20;;;;;;5001297;28;20462;-77
2021/04/10 06:25:59;;;;;;;1.50;1.20;;;8.90;98.20;;;;;;4970874;28;20573;-76
2021/04/10 06:28:26;;;;;;;1.50;1.20;;;8.90;98.20;;;;;;4986122;28;20518;-76
2021/04/10 06:30:52;;;;;;;1.53;1.20;;;9.00;98.20;;;;;;4975253;28;20465;-75
2021/04/10 06:33:23;;;;;;;1.57;1.20;;;9.00;98.20;;;;;;4999019;28;20466;-76
2021/04/10 06:35:52;;;;;;;1.60;1.30;;;9.00;98.20;;;;;;4973557;28;20469;-78
2021/04/10 06:38:19;;;;;;;1.50;1.20;;;9.10;98.20;;;;;;5001407;28;20465;-77
2021/04/10 06:40:46;;;;;;;1.50;1.10;;;9.10;98.20;;;;;;4983347;28;21257;-77
2021/04/10 06:43:16;;;;;;;1.53;1.20;;;9.10;98.20;;;;;;5010485;28;20480;-77
2021/04/10 06:45:42;;;;;;;1.50;1.10;;;9.20;98.20;;;;;;4982733;28;20507;-76
2021/04/10 06:48:14;;;;;;;1.60;1.20;;;9.20;98.20;;;;;;4993601;28;20497;-76
2021/04/10 06:50:42;;;;;;;1.50;1.20;;;9.20;98.20;;;;;;4985434;28;20991;-76
2021/04/10 06:53:14;;;;;;;1.50;1.20;;;9.20;98.20;;;;;;4990035;28;20482;-76
2021/04/10 06:55:51;;;;;;;1.50;1.17;;;9.20;98.20;;;;;;4986065;28;20465;-75
2021/04/10 06:58:29;;;;;;;1.60;1.20;;;9.20;98.20;;;;;;4974833;28;20504;-77
2021/04/10 07:00:56;;;;;;;1.50;1.20;;;9.20;98.20;;;;;;4978152;28;20908;-76
2021/04/10 07:03:26;;;;;;;1.50;1.17;;;9.30;98.20;;;;;;4980384;28;20508;-76
2021/04/10 07:05:54;;;;;;;1.53;1.10;;;9.30;98.20;;;;;;4974678;28;20492;-76
2021/04/10 07:08:22;;;;;;;1.60;1.20;;;9.20;98.20;;;;;;5002871;28;20549;-76
2021/04/10 07:10:50;;;;;;;4.03;3.73;;;9.30;98.20;;;;;;4970680;28;20487;-75
2021/04/10 07:13:17;;;;;;;1.53;1.10;;;9.30;98.20;;;;;;4978862;28;20469;-76
2021/04/10 07:15:44;;;;;;;1.53;1.13;;;9.40;98.20;;;;;;4973817;28;20473;-75
2021/04/10 07:18:11;;;;;;;1.50;1.10;;;9.40;98.20;;;;;;4974176;28;20484;-77
2021/04/10 07:20:39;;;;;;;1.53;1.10;;;9.40;98.20;;;;;;4984344;28;20620;-77
2021/04/10 07:23:08;;;;;;;1.50;1.20;;;9.50;98.20;;;;;;4977374;28;20477;-75
2021/04/10 07:25:37;;;;;;;1.50;1.13;;;9.50;98.20;;;;;;4982448;28;20470;-76
2021/04/10 07:28:25;;;;;;;1.50;1.10;;;9.50;98.20;;;;;;4969106;28;21003;-76
2021/04/10 07:31:00;;;;;;;1.50;1.10;;;9.50;98.20;;;;;;4968826;28;20492;-76
2021/04/10 07:33:28;;;;;;;1.50;1.10;;;9.50;98.20;;;;;;4985052;28;20465;-76
2021/04/10 07:35:57;;;;;;;1.50;1.10;;;9.60;98.20;;;;;;4981398;28;20473;-77
2021/04/10 07:38:28;;;;;;;1.50;1.20;;;9.60;98.20;;;;;;4999008;28;20953;-77
2021/04/10 07:40:55;;;;;;;1.50;1.10;;;9.60;98.20;;;;;;4975212;28;20492;-77
2021/04/10 07:43:31;;;;;;;1.50;1.10;;;9.70;98.20;;;;;;4992038;28;20890;-77
2021/04/10 07:46:12;;;;;;;1.53;1.20;;;9.70;98.20;;;;;;4966374;28;20561;-77
2021/04/10 07:48:39;;;;;;;1.50;1.10;;;9.80;98.20;;;;;;4999109;28;20556;-77
2021/04/10 07:51:15;;;;;;;1.53;1.20;;;9.90;98.20;;;;;;4979242;28;20474;-77
2021/04/10 07:53:41;;;;;;;1.50;1.10;;;9.90;98.20;;;;;;4973420;28;20511;-77
2021/04/10 07:56:11;;;;;;;1.53;1.10;;;10.00;98.20;;;;;;4966481;28;20583;-76
2021/04/10 07:58:47;;;;;;;1.50;1.10;;;10.10;98.20;;;;;;4977823;28;21936;-77
2021/04/10 08:01:14;;;;;;;1.57;1.10;;;10.20;98.20;;;;;;4974915;28;20525;-77
2021/04/10 08:03:44;;;;;;;1.50;1.10;;;10.30;98.20;;;;;;4974402;28;20986;-77
2021/04/10 08:06:21;;;;;;;1.50;1.00;;;10.30;98.20;;;;;;4964144;28;20478;-77
2021/04/10 08:09:01;;;;;;;1.57;1.10;;;10.40;98.20;;;;;;4974185;28;20500;-78
2021/04/10 08:11:39;;;;;;;1.50;1.10;;;10.50;98.20;;;;;;4966619;28;20504;-76
2021/04/10 08:14:18;;;;;;;1.53;1.03;;;10.60;98.20;;;;;;4980659;28;20465;-76
2021/04/10 08:16:48;;;;;;;1.57;1.10;;;10.70;98.20;;;;;;4971716;28;20489;-76
2021/04/10 08:19:18;;;;;;;1.50;1.10;;;10.70;98.20;;;;;;4976966;28;20563;-77
2021/04/10 08:21:48;;;;;;;1.50;1.10;;;10.70;98.20;;;;;;4980363;28;20648;-77
2021/04/10 08:24:39;;;;;;;1.50;1.10;;;10.80;98.20;;;;;;4986330;28;20501;-76
2021/04/10 08:27:11;;;;;;;1.50;1.10;;;10.80;98.20;;;;;;4951379;28;20571;-76
2021/04/10 08:29:39;;;;;;;1.50;1.10;;;10.90;98.20;;;;;;4974793;28;20484;-76
2021/04/10 08:32:07;;;;;;;1.53;1.10;;;10.90;98.20;;;;;;4980070;28;20595;-76
2021/04/10 08:34:35;;;;;;;1.50;1.10;;;10.90;98.20;;;;;;4986230;28;20971;-77
2021/04/10 08:37:04;;;;;;;1.50;1.10;;;10.90;98.20;;;;;;4966692;28;20477;-76
2021/04/10 08:39:34;;;;;;;1.50;1.10;;;10.90;98.20;;;;;;4974855;28;20493;-77
2021/04/10 08:42:01;;;;;;;1.57;1.10;;;10.90;98.20;;;;;;4978378;28;20504;-77
2021/04/10 08:44:31;;;;;;;1.60;1.10;;;10.90;98.20;;;;;;4978605;28;20477;-77
2021/04/10 08:47:01;;;;;;;1.50;1.00;;;11.00;98.20;;;;;;4966511;28;20492;-77
2021/04/10 08:49:41;;;;;;;1.57;1.10;;;11.00;98.20;;;;;;4970100;28;20492;-77
2021/04/10 08:52:15;;;;;;;1.50;1.10;;;11.00;98.20;;;;;;4971786;28;20539;-77
2021/04/10 08:54:45;;;;;;;1.50;1.00;;;10.90;98.20;;;;;;4970953;28;20750;-77
2021/04/10 08:57:16;;;;;;;1.50;1.00;;;10.90;98.20;;;;;;4967705;28;21122;-76
2021/04/10 08:59:51;;;;;;;1.50;1.00;;;11.00;98.20;;;;;;4976123;28;20566;-76
2021/04/10 09:02:27;;;;;;;1.50;1.10;;;11.00;98.20;;;;;;4969594;28;20476;-76
2021/04/10 09:05:04;;;;;;;1.50;1.10;;;11.00;98.20;;;;;;4973233;28;20590;-76
2021/04/10 09:08:06;;;;;;;1.50;1.10;;;11.00;98.20;;;;;;4986522;28;20488;-77
2021/04/10 09:11:01;;;;;;;1.50;1.10;;;11.00;98.20;;;;;;4973295;28;20572;-76
2021/04/10 09:13:33;;;;;;;1.50;1.00;;;11.00;98.20;;;;;;4958775;28;20516;-75
2021/04/10 09:16:29;;;;;;;1.50;1.10;;;10.90;98.20;;;;;;4969778;28;20955;-75
2021/04/10 09:19:04;;;;;;;1.50;1.10;;;10.90;98.20;;;;;;4978589;28;20492;-75
2021/04/10 09:21:42;;;;;;;1.50;1.07;;;10.80;98.20;;;;;;4970946;28;20905;-74
2021/04/10 09:24:30;;;;;;;1.50;1.10;;;10.80;98.20;;;;;;4983643;28;20474;-75
2021/04/10 09:27:07;;;;;;;1.50;1.07;;;10.80;98.20;;;;;;4968631;28;20733;-75
2021/04/10 09:30:02;;;;;;;1.60;1.20;;;10.80;98.20;;;;;;4972823;28;20484;-75
2021/04/10 09:32:38;;;;;;;1.50;1.00;;;10.80;98.20;;;;;;4983395;28;20480;-75
2021/04/10 09:35:08;;;;;;;1.50;1.10;;;10.80;98.20;;;;;;4984104;28;20460;-75
2021/04/10 09:38:01;;;;;;;1.50;1.10;;;10.80;98.20;;;;;;4965668;28;20485;-75
2021/04/10 09:40:50;;;;;;;1.50;1.10;;;10.90;98.20;;;;;;4983536;28;20551;-74
2021/04/10 09:43:26;;;;;;;1.50;1.10;;;10.90;98.20;;;;;;4977533;28;20505;-74
2021/04/10 09:45:53;;;;;;;1.50;1.20;;;11.00;98.20;;;;;;4970755;28;20464;-74
2021/04/10 09:48:46;;;;;;;1.50;1.10;;;11.00;98.20;;;;;;4977777;28;20470;-74
2021/04/10 09:51:14;;;;;;;1.50;1.10;;;11.00;98.20;;;;;;4981282;28;20582;-75
2021/04/10 09:53:47;;;;;;;1.50;1.07;;;11.10;98.20;;;;;;4994570;28;20470;-75
2021/04/10 09:56:15;;;;;;;1.50;1.10;;;11.10;98.20;;;;;;4976998;28;20486;-74
2021/04/10 09:58:52;;;;;;;1.50;1.10;;;11.10;98.20;;;;;;4998794;28;20817;-75
2021/04/10 10:01:22;;;;;;;1.50;1.00;;;11.10;98.20;;;;;;4964410;28;20772;-75
2021/04/10 10:03:50;;;;;;;1.50;1.10;;;11.10;98.20;;;;;;4986476;28;20962;-75
2021/04/10 10:06:22;;;;;;;1.50;1.00;;;11.00;98.20;;;;;;4972053;28;20509;-75
2021/04/10 10:08:49;;;;;;;1.50;1.07;;;11.00;98.20;;;;;;4978114;28;20498;-75
2021/04/10 10:11:17;;;;;;;1.50;1.10;;;11.00;98.20;;;;;;4970487;28;20981;-75
2021/04/10 10:13:46;;;;;;;1.57;1.10;;;11.00;98.20;;;;;;4982376;28;20474;-74
2021/04/10 10:16:13;;;;;;;1.50;1.00;;;11.10;98.20;;;;;;4973882;28;20480;-75
2021/04/10 10:18:43;;;;;;;1.50;1.10;;;11.10;98.20;;;;;;4998534;28;20453;-75
2021/04/10 10:21:17;;;;;;;1.50;1.00;;;11.10;98.20;;;;;;4973096;28;21035;-75
2021/04/10 10:23:52;;;;;;;1.50;1.00;;;11.10;98.20;;;;;;4984504;28;20466;-75
2021/04/10 10:26:21;;;;;;;1.50;1.00;;;11.10;98.20;;;;;;4979837;28;20495;-74
2021/04/10 10:28:49;;;;;;;1.53;1.10;;;11.00;98.20;;;;;;4982804;28;20948;-74
2021/04/10 10:31:18;;;;;;;1.50;1.10;;;11.00;98.20;;;;;;4976310;28;20485;-74
2021/04/10 10:33:45;;;;;;;1.50;1.00;;;11.00;98.20;;;;;;4976323;28;20473;-74
2021/04/10 10:36:16;;;;;;;1.57;1.10;;;10.90;98.20;;;;;;4974385;28;20880;-74
2021/04/10 10:38:46;;;;;;;1.50;1.10;;;10.90;98.20;;;;;;4979052;28;20462;-74
2021/04/10 10:41:14;;;;;;;1.50;1.10;;;10.80;98.20;;;;;;4973596;28;20550;-75
2021/04/10 10:43:42;;;;;;;1.50;1.10;;;10.80;98.20;;;;;;4984727;28;20461;-74
2021/04/10 10:46:10;;;;;;;1.50;1.10;;;10.80;98.20;;;;;;4979775;28;21463;-74
2021/04/10 10:48:39;;;;;;;1.50;1.00;;;10.70;98.20;;;;;;4997943;28;20461;-74
2021/04/10 10:51:22;;;;;;;1.50;1.10;;;10.70;98.20;;;;;;4974212;28;20444;-75
2021/04/10 10:54:00;;;;;;;1.50;1.20;;;10.80;98.20;;;;;;4979506;28;20468;-74
2021/04/10 10:56:28;;;;;;;1.50;1.10;;;10.80;98.20;;;;;;4969145;28;20485;-74
2021/04/10 11:01:41;;;;;;;1.50;1.10;;;10.90;98.20;;;;;;4980584;28;20590;-75
2021/04/10 11:04:10;;;;;;;1.50;1.00;;;10.90;98.20;;;;;;4997057;28;20520;-75
2021/04/10 11:06:45;;;;;;;1.50;1.10;;;10.90;98.20;;;;;;4965340;28;20515;-74
2021/04/10 11:09:17;;;;;;;1.50;1.10;;;11.00;98.20;;;;;;4981403;28;20507;-74
2021/04/10 11:11:46;;;;;;;1.53;1.10;;;10.90;98.20;;;;;;4970293;28;20576;-74
2021/04/10 11:14:22;;;;;;;1.60;1.10;;;10.90;98.20;;;;;;4980383;28;20556;-74
2021/04/10 11:17:00;;;;;;;1.50;1.00;;;10.90;98.20;;;;;;4967277;28;20490;-73
2021/04/10 11:19:31;;;;;;;2.83;2.43;;;10.90;98.20;;;;;;4985947;28;20488;-74
2021/04/10 11:22:04;;;;;;;1.50;1.10;;;10.90;98.20;;;;;;4989011;28;20515;-74
2021/04/10 11:24:42;;;;;;;1.60;1.10;;;11.00;98.20;;;;;;4983618;28;21042;-74
2021/04/10 11:27:13;;;;;;;1.50;1.00;;;10.90;98.20;;;;;;4988475;28;20500;-75
2021/04/10 11:29:59;;;;;;;1.50;1.07;;;10.80;98.20;;;;;;4984590;28;21022;-74
2021/04/10 11:32:27;;;;;;;1.50;1.00;;;10.90;98.20;;;;;;4966471;28;20493;-75
2021/04/10 11:35:04;;;;;;;1.50;1.00;;;10.80;98.20;;;;;;4981202;28;20481;-75
2021/04/10 11:37:50;;;;;;;1.50;1.10;;;10.80;98.20;;;;;;4990867;28;20483;-75
2021/04/10 11:40:27;;;;;;;1.50;1.00;;;10.80;98.20;;;;;;4987897;28;20600;-74
2021/04/10 11:42:56;;;;;;;1.50;1.10;;;10.70;98.20;;;;;;4971502;28;20560;-75
2021/04/10 11:45:38;;;;;;;1.53;1.10;;;10.70;98.20;;;;;;4983946;28;20469;-74
2021/04/10 11:48:06;;;;;;;2.67;1.57;;;10.60;98.20;;;;;;4993840;28;20696;-75
2021/04/10 11:50:46;;;;;;;1.50;1.10;;;10.60;98.20;;;;;;4977500;28;20887;-75
2021/04/10 11:53:16;;;;;;;1.50;1.00;;;10.50;98.20;;;;;;4966264;28;20479;-75
2021/04/10 11:55:58;;;;;;;1.50;1.10;;;10.60;98.20;;;;;;4981749;28;20474;-75
2021/04/10 11:58:37;;;;;;;1.50;1.10;;;10.50;98.20;;;;;;4967618;28;20487;-75
2021/04/10 12:01:17;;;;;;;1.53;1.10;;;10.50;98.20;;;;;;4969017;28;20470;-75
2021/04/10 12:04:00;;;;;;;1.50;1.00;;;10.50;98.20;;;;;;4985323;28;20488;-74
2021/04/10 12:06:29;;;;;;;1.53;1.10;;;10.60;98.20;;;;;;4973833;28;20791;-74
2021/04/10 12:09:00;;;;;;;1.50;1.10;;;10.60;98.20;;;;;;4977062;28;20489;-73
2021/04/10 12:14:22;;;;;;;1.50;1.00;;;10.70;98.20;;;;;;4997184;28;20465;-75
2021/04/10 12:19:29;;;;;;;1.80;1.70;;;10.80;98.20;;;;;;4992229;28;20645;-75
2021/04/10 12:22:05;;;;;;;1.70;1.53;;;10.80;98.20;;;;;;4984327;28;20484;-75
2021/04/10 12:24:52;;;;;;;1.57;1.10;;;10.90;98.20;;;;;;4986666;28;20469;-75
2021/04/10 12:27:31;;;;;;;1.50;1.10;;;10.90;98.20;;;;;;4982719;28;20924;-75
2021/04/10 12:30:28;;;;;;;1.50;1.07;;;10.90;98.20;;;;;;4990542;28;20572;-75
2021/04/10 12:33:14;;;;;;;1.57;1.10;;;11.00;98.20;;;;;;4971469;28;20527;-75
2021/04/10 12:35:52;;;;;;;1.57;1.13;;;10.90;98.20;;;;;;4986381;28;20465;-75
2021/04/10 12:38:22;;;;;;;1.50;1.10;;;10.90;98.20;;;;;;4973192;28;20573;-75
2021/04/10 12:40:48;;;;;;;1.53;1.10;;;10.80;98.20;;;;;;4974513;28;20496;-75
2021/04/10 12:43:30;;;;;;;1.50;1.00;;;10.70;98.20;;;;;;5001970;28;20964;-76
2021/04/10 12:46:26;;;;;;;1.50;1.00;;;10.70;98.20;;;;;;4971848;28;20473;-76
2021/04/10 12:49:01;;;;;;;1.50;1.10;;;10.70;98.20;;;;;;4980442;28;21032;-75
2021/04/10 12:51:45;;;;;;;1.50;1.10;;;10.60;98.20;;;;;;4975230;28;20472;-76
2021/04/10 12:54:18;;;;;;;1.50;1.10;;;10.50;98.20;;;;;;4978617;28;20465;-76
2021/04/10 12:56:49;;;;;;;1.53;1.17;;;10.50;98.20;;;;;;4982010;28;20515;-75
2021/04/10 13:00:03;;;;;;;1.50;1.03;;;10.50;98.20;;;;;;4992934;28;20480;-76
2021/04/10 13:02:35;;;;;;;1.50;1.10;;;10.50;98.20;;;;;;4994226;28;20571;-75
2021/04/10 13:05:05;;;;;;;1.50;1.00;;;10.50;98.20;;;;;;4992018;28;20478;-75
2021/04/10 13:07:48;;;;;;;1.50;1.10;;;10.50;98.20;;;;;;4992203;28;21053;-75
2021/04/10 13:10:16;;;;;;;1.60;1.20;;;10.50;98.20;;;;;;4986449;28;20489;-75
2021/04/10 13:12:45;;;;;;;1.50;1.10;;;10.50;98.20;;;;;;4974723;28;20552;-74
2021/04/10 13:15:35;;;;;;;1.57;1.20;;;10.50;98.20;;;;;;4982756;28;20469;-74
2021/04/10 13:18:04;;;;;;;1.50;1.10;;;10.50;98.20;;;;;;4992182;28;20475;-74
2021/04/10 13:20:31;;;;;;;1.50;1.10;;;10.50;98.20;;;;;;4977394;28;20493;-74